sensor_id;sensor_type;location;lat;lon;timestamp;pressure;altitude;pressure_sealevel;temperature
79053;BMP280;68451;49.510;6.026;2023-04-05T00:00:54;98677.63;;;0.82
79053;BMP280;68451;49.510;6.026;2023-04-05T00:03:20;98725.16;;;1.06
79053;BMP280;68451;49.510;6.026;2023-04-05T00:05:46;98700.72;;;0.92
79053;BMP280;68451;49.510;6.026;2023-04-05T00:08:14;98716.16;;;0.92
79053;BMP280;68451;49.510;6.026;2023-04-05T00:10:48;98730.88;;;1.00
79053;BMP280;68451;49.510;6.026;2023-04-05T00:13:14;98689.91;;;0.61
79053;BMP280;68451;49.510;6.026;2023-04-05T00:15:40;98696.38;;;0.65
79053;BMP280;68451;49.510;6.026;2023-04-05T00:18:06;98714.72;;;0.80
79053;BMP280;68451;49.510;6.026;2023-04-05T00:20:31;98722.03;;;0.84
79053;BMP280;68451;49.510;6.026;2023-04-05T00:22:58;98598.97;;;0.08
79053;BMP280;68451;49.510;6.026;2023-04-05T00:25:23;98690.81;;;0.70
79053;BMP280;68451;49.510;6.026;2023-04-05T00:27:49;98699.34;;;0.70
79053;BMP280;68451;49.510;6.026;2023-04-05T00:30:15;98678.94;;;0.59
79053;BMP280;68451;49.510;6.026;2023-04-05T00:32:47;98636.75;;;0.25
79053;BMP280;68451;49.510;6.026;2023-04-05T00:35:14;98650.63;;;0.32
79053;BMP280;68451;49.510;6.026;2023-04-05T00:37:39;98667.16;;;0.29
79053;BMP280;68451;49.510;6.026;2023-04-05T00:40:05;98682.44;;;0.31
79053;BMP280;68451;49.510;6.026;2023-04-05T00:42:31;98719.03;;;0.42
79053;BMP280;68451;49.510;6.026;2023-04-05T00:44:57;98668.94;;;0.10
79053;BMP280;68451;49.510;6.026;2023-04-05T00:47:22;98718.94;;;0.34
79053;BMP280;68451;49.510;6.026;2023-04-05T00:49:48;98666.16;;;-0.07
79053;BMP280;68451;49.510;6.026;2023-04-05T00:52:14;98494.00;;;-1.17
79053;BMP280;68451;49.510;6.026;2023-04-05T00:54:40;98689.53;;;0.00
79053;BMP280;68451;49.510;6.026;2023-04-05T00:57:07;98700.72;;;0.09
79053;BMP280;68451;49.510;6.026;2023-04-05T00:59:33;98694.50;;;0.02
79053;BMP280;68451;49.510;6.026;2023-04-05T01:02:12;98703.44;;;0.07
79053;BMP280;68451;49.510;6.026;2023-04-05T01:04:43;98711.13;;;0.07
79053;BMP280;68451;49.510;6.026;2023-04-05T01:07:24;98664.28;;;-0.14
79053;BMP280;68451;49.510;6.026;2023-04-05T01:09:58;98707.06;;;0.05
79053;BMP280;68451;49.510;6.026;2023-04-05T01:12:27;98626.91;;;-0.46
79053;BMP280;68451;49.510;6.026;2023-04-05T01:14:56;98713.03;;;-0.05
79053;BMP280;68451;49.510;6.026;2023-04-05T01:17:25;98692.75;;;-0.17
79053;BMP280;68451;49.510;6.026;2023-04-05T01:19:55;98691.00;;;-0.17
79053;BMP280;68451;49.510;6.026;2023-04-05T01:25:44;98705.75;;;-0.09
79053;BMP280;68451;49.510;6.026;2023-04-05T01:34:16;98698.19;;;-0.20
79053;BMP280;68451;49.510;6.026;2023-04-05T01:36:49;98686.03;;;-0.37
79053;BMP280;68451;49.510;6.026;2023-04-05T01:39:19;98609.06;;;-0.85
79053;BMP280;68451;49.510;6.026;2023-04-05T01:41:45;98653.75;;;-0.50
79053;BMP280;68451;49.510;6.026;2023-04-05T01:44:11;98689.25;;;-0.26
79053;BMP280;68451;49.510;6.026;2023-04-05T01:46:36;98491.13;;;-1.53
79053;BMP280;68451;49.510;6.026;2023-04-05T01:49:03;98678.84;;;-0.43
79053;BMP280;68451;49.510;6.026;2023-04-05T01:51:28;98655.38;;;-0.58
79053;BMP280;68451;49.510;6.026;2023-04-05T01:53:54;98654.97;;;-0.63
79053;BMP280;68451;49.510;6.026;2023-04-05T01:56:20;98656.72;;;-0.64
79053;BMP280;68451;49.510;6.026;2023-04-05T01:58:45;98647.81;;;-0.69
79053;BMP280;68451;49.510;6.026;2023-04-05T02:01:11;98622.28;;;-0.90
79053;BMP280;68451;49.510;6.026;2023-04-05T02:03:36;98666.16;;;-0.64
79053;BMP280;68451;49.510;6.026;2023-04-05T02:06:02;98620.66;;;-1.01
79053;BMP280;68451;49.510;6.026;2023-04-05T02:08:27;98625.50;;;-0.98
79053;BMP280;68451;49.510;6.026;2023-04-05T02:10:53;98654.66;;;-0.79
79053;BMP280;68451;49.510;6.026;2023-04-05T02:13:18;98666.69;;;-0.70
79053;BMP280;68451;49.510;6.026;2023-04-05T02:15:47;98659.56;;;-0.76
79053;BMP280;68451;49.510;6.026;2023-04-05T02:18:13;98647.13;;;-0.91
79053;BMP280;68451;49.510;6.026;2023-04-05T02:20:39;98674.13;;;-0.77
79053;BMP280;68451;49.510;6.026;2023-04-05T02:23:05;98652.25;;;-0.91
79053;BMP280;68451;49.510;6.026;2023-04-05T02:25:34;98671.41;;;-0.85
79053;BMP280;68451;49.510;6.026;2023-04-05T02:27:59;98637.91;;;-1.03
79053;BMP280;68451;49.510;6.026;2023-04-05T02:30:25;98658.81;;;-0.98
79053;BMP280;68451;49.510;6.026;2023-04-05T02:32:53;98670.59;;;-0.95
79053;BMP280;68451;49.510;6.026;2023-04-05T02:35:19;98516.38;;;-1.88
79053;BMP280;68451;49.510;6.026;2023-04-05T02:37:45;98615.22;;;-1.26
79053;BMP280;68451;49.510;6.026;2023-04-05T02:40:12;98577.13;;;-1.50
79053;BMP280;68451;49.510;6.026;2023-04-05T02:42:39;98600.91;;;-1.39
79053;BMP280;68451;49.510;6.026;2023-04-05T02:45:05;98634.38;;;-1.11
79053;BMP280;68451;49.510;6.026;2023-04-05T02:47:32;98591.97;;;-1.44
79053;BMP280;68451;49.510;6.026;2023-04-05T02:49:58;98322.06;;;-3.19
79053;BMP280;68451;49.510;6.026;2023-04-05T02:52:24;98626.34;;;-1.37
79053;BMP280;68451;49.510;6.026;2023-04-05T02:54:49;98496.72;;;-2.18
79053;BMP280;68451;49.510;6.026;2023-04-05T02:57:15;98639.31;;;-1.29
79053;BMP280;68451;49.510;6.026;2023-04-05T02:59:40;98656.09;;;-1.15
79053;BMP280;68451;49.510;6.026;2023-04-05T03:02:08;98628.91;;;-1.37
79053;BMP280;68451;49.510;6.026;2023-04-05T03:04:33;98644.06;;;-1.24
79053;BMP280;68451;49.510;6.026;2023-04-05T03:07:00;98638.69;;;-1.21
79053;BMP280;68451;49.510;6.026;2023-04-05T03:09:28;98594.94;;;-1.49
79053;BMP280;68451;49.510;6.026;2023-04-05T03:12:01;98651.78;;;-1.15
79053;BMP280;68451;49.510;6.026;2023-04-05T03:14:29;98633.69;;;-1.23
79053;BMP280;68451;49.510;6.026;2023-04-05T03:16:55;98650.03;;;-1.14
79053;BMP280;68451;49.510;6.026;2023-04-05T03:19:20;98650.97;;;-1.15
79053;BMP280;68451;49.510;6.026;2023-04-05T03:21:49;98588.19;;;-1.50
79053;BMP280;68451;49.510;6.026;2023-04-05T03:24:15;98618.66;;;-1.37
79053;BMP280;68451;49.510;6.026;2023-04-05T03:26:45;98624.88;;;-1.40
79053;BMP280;68451;49.510;6.026;2023-04-05T03:29:11;98615.97;;;-1.45
79053;BMP280;68451;49.510;6.026;2023-04-05T03:31:36;98611.63;;;-1.54
79053;BMP280;68451;49.510;6.026;2023-04-05T03:34:02;98646.44;;;-1.42
79053;BMP280;68451;49.510;6.026;2023-04-05T03:36:27;98626.69;;;-1.61
79053;BMP280;68451;49.510;6.026;2023-04-05T03:38:55;98621.81;;;-1.64
79053;BMP280;68451;49.510;6.026;2023-04-05T03:41:21;98609.94;;;-1.74
79053;BMP280;68451;49.510;6.026;2023-04-05T03:43:47;98638.69;;;-1.61
79053;BMP280;68451;49.510;6.026;2023-04-05T03:46:13;98639.25;;;-1.78
79053;BMP280;68451;49.510;6.026;2023-04-05T03:48:39;98515.56;;;-2.49
79053;BMP280;68451;49.510;6.026;2023-04-05T03:51:04;98655.78;;;-1.62
79053;BMP280;68451;49.510;6.026;2023-04-05T03:53:30;98474.13;;;-2.74
79053;BMP280;68451;49.510;6.026;2023-04-05T03:55:56;98647.38;;;-1.73
79053;BMP280;68451;49.510;6.026;2023-04-05T03:58:24;98607.34;;;-2.05
79053;BMP280;68451;49.510;6.026;2023-04-05T04:00:50;98590.00;;;-2.22
79053;BMP280;68451;49.510;6.026;2023-04-05T04:03:17;98666.47;;;-1.77
79053;BMP280;68451;49.510;6.026;2023-04-05T04:05:42;98611.47;;;-2.13
79053;BMP280;68451;49.510;6.026;2023-04-05T04:08:08;98659.75;;;-1.78
79053;BMP280;68451;49.510;6.026;2023-04-05T04:10:33;98658.97;;;-1.79
79053;BMP280;68451;49.510;6.026;2023-04-05T04:12:59;98662.88;;;-1.75
79053;BMP280;68451;49.510;6.026;2023-04-05T04:15:25;98623.00;;;-1.98
79053;BMP280;68451;49.510;6.026;2023-04-05T04:17:50;98600.31;;;-2.12
79053;BMP280;68451;49.510;6.026;2023-04-05T04:20:16;98647.72;;;-1.88
79053;BMP280;68451;49.510;6.026;2023-04-05T04:22:41;98625.19;;;-1.94
79053;BMP280;68451;49.510;6.026;2023-04-05T04:25:08;98518.06;;;-2.59
79053;BMP280;68451;49.510;6.026;2023-04-05T04:27:37;98657.50;;;-1.72
79053;BMP280;68451;49.510;6.026;2023-04-05T04:30:08;98568.66;;;-2.32
79053;BMP280;68451;49.510;6.026;2023-04-05T04:32:36;98652.38;;;-1.72
79053;BMP280;68451;49.510;6.026;2023-04-05T04:35:14;98661.81;;;-1.72
79053;BMP280;68451;49.510;6.026;2023-04-05T04:37:46;98645.84;;;-1.86
79053;BMP280;68451;49.510;6.026;2023-04-05T04:40:15;98644.34;;;-1.88
79053;BMP280;68451;49.510;6.026;2023-04-05T04:42:45;98573.94;;;-2.34
79053;BMP280;68451;49.510;6.026;2023-04-05T04:45:13;98605.69;;;-2.15
79053;BMP280;68451;49.510;6.026;2023-04-05T04:47:43;98640.59;;;-2.05
79053;BMP280;68451;49.510;6.026;2023-04-05T04:50:09;98527.53;;;-2.71
79053;BMP280;68451;49.510;6.026;2023-04-05T04:52:37;98604.88;;;-2.16
79053;BMP280;68451;49.510;6.026;2023-04-05T04:55:02;98503.34;;;-2.87
79053;BMP280;68451;49.510;6.026;2023-04-05T04:57:28;98557.09;;;-2.57
79053;BMP280;68451;49.510;6.026;2023-04-05T04:59:54;98594.03;;;-2.29
79053;BMP280;68451;49.510;6.026;2023-04-05T05:04:49;98379.59;;;-3.56
79053;BMP280;68451;49.510;6.026;2023-04-05T05:07:17;98452.00;;;-3.05
79053;BMP280;68451;49.510;6.026;2023-04-05T05:09:43;98653.25;;;-1.83
79053;BMP280;68451;49.510;6.026;2023-04-05T05:12:09;98590.00;;;-2.22
79053;BMP280;68451;49.510;6.026;2023-04-05T05:14:34;98643.66;;;-1.90
79053;BMP280;68451;49.510;6.026;2023-04-05T05:17:00;98604.97;;;-2.17
79053;BMP280;68451;49.510;6.026;2023-04-05T05:19:26;98608.47;;;-2.18
79053;BMP280;68451;49.510;6.026;2023-04-05T05:21:53;98636.84;;;-2.01
79053;BMP280;68451;49.510;6.026;2023-04-05T05:24:19;98647.41;;;-1.94
79053;BMP280;68451;49.510;6.026;2023-04-05T05:26:45;98391.53;;;-3.57
79053;BMP280;68451;49.510;6.026;2023-04-05T05:29:10;98618.47;;;-2.15
79053;BMP280;68451;49.510;6.026;2023-04-05T05:31:36;98619.41;;;-2.16
79053;BMP280;68451;49.510;6.026;2023-04-05T05:34:01;98664.00;;;-1.89
79053;BMP280;68451;49.510;6.026;2023-04-05T05:36:27;98646.16;;;-2.00
79053;BMP280;68451;49.510;6.026;2023-04-05T05:38:53;98653.50;;;-1.86
79053;BMP280;68451;49.510;6.026;2023-04-05T05:41:19;98661.91;;;-1.84
79053;BMP280;68451;49.510;6.026;2023-04-05T05:43:45;98662.44;;;-1.80
79053;BMP280;68451;49.510;6.026;2023-04-05T05:46:11;98662.19;;;-1.77
79053;BMP280;68451;49.510;6.026;2023-04-05T05:48:37;98645.03;;;-1.86
79053;BMP280;68451;49.510;6.026;2023-04-05T05:51:02;98640.59;;;-1.84
79053;BMP280;68451;49.510;6.026;2023-04-05T05:53:35;98629.00;;;-1.88
79053;BMP280;68451;49.510;6.026;2023-04-05T05:56:01;98596.16;;;-2.04
79053;BMP280;68451;49.510;6.026;2023-04-05T05:58:26;98512.31;;;-2.51
79053;BMP280;68451;49.510;6.026;2023-04-05T06:00:52;98656.09;;;-1.55
79053;BMP280;68451;49.510;6.026;2023-04-05T06:03:21;98636.66;;;-1.58
79053;BMP280;68451;49.510;6.026;2023-04-05T06:05:57;98655.75;;;-1.41
79053;BMP280;68451;49.510;6.026;2023-04-05T06:08:24;98504.66;;;-2.21
79053;BMP280;68451;49.510;6.026;2023-04-05T06:10:52;98652.72;;;-1.16
79053;BMP280;68451;49.510;6.026;2023-04-05T06:13:18;98626.41;;;-1.18
79053;BMP280;68451;49.510;6.026;2023-04-05T06:15:46;98398.41;;;-2.35
79053;BMP280;68451;49.510;6.026;2023-04-05T06:18:11;98644.69;;;-0.73
79053;BMP280;68451;49.510;6.026;2023-04-05T06:20:37;98647.69;;;-0.58
79053;BMP280;68451;49.510;6.026;2023-04-05T06:23:06;98649.97;;;-0.36
79053;BMP280;68451;49.510;6.026;2023-04-05T06:25:32;98629.41;;;-0.26
79053;BMP280;68451;49.510;6.026;2023-04-05T06:27:57;98529.03;;;-0.79
79053;BMP280;68451;49.510;6.026;2023-04-05T06:30:22;98644.34;;;0.17
79053;BMP280;68451;49.510;6.026;2023-04-05T06:32:48;98639.41;;;0.33
79053;BMP280;68451;49.510;6.026;2023-04-05T06:35:19;98543.88;;;-0.08
79053;BMP280;68451;49.510;6.026;2023-04-05T06:37:45;98637.66;;;0.70
79053;BMP280;68451;49.510;6.026;2023-04-05T06:40:12;98548.09;;;0.48
79053;BMP280;68451;49.510;6.026;2023-04-05T06:42:37;98656.84;;;1.39
79053;BMP280;68451;49.510;6.026;2023-04-05T06:45:03;98517.81;;;0.69
79053;BMP280;68451;49.510;6.026;2023-04-05T06:47:33;98647.34;;;1.74
79053;BMP280;68451;49.510;6.026;2023-04-05T06:50:00;98633.03;;;1.98
79053;BMP280;68451;49.510;6.026;2023-04-05T06:52:27;98508.38;;;1.57
79053;BMP280;68451;49.510;6.026;2023-04-05T06:54:53;98609.50;;;2.52
79053;BMP280;68451;49.510;6.026;2023-04-05T06:57:18;98607.41;;;2.90
79053;BMP280;68451;49.510;6.026;2023-04-05T06:59:44;98613.25;;;3.32
79053;BMP280;68451;49.510;6.026;2023-04-05T07:02:10;98589.56;;;3.61
79053;BMP280;68451;49.510;6.026;2023-04-05T07:04:36;98628.59;;;4.15
79053;BMP280;68451;49.510;6.026;2023-04-05T07:07:02;98626.84;;;4.54
79053;BMP280;68451;49.510;6.026;2023-04-05T07:09:31;98613.34;;;4.75
79053;BMP280;68451;49.510;6.026;2023-04-05T07:11:58;98620.66;;;5.02
79053;BMP280;68451;49.510;6.026;2023-04-05T07:14:23;98589.25;;;5.05
79053;BMP280;68451;49.510;6.026;2023-04-05T07:16:50;98492.69;;;4.51
79053;BMP280;68451;49.510;6.026;2023-04-05T07:19:16;98611.53;;;5.60
79053;BMP280;68451;49.510;6.026;2023-04-05T07:21:42;98598.69;;;5.66
79053;BMP280;68451;49.510;6.026;2023-04-05T07:24:08;98517.38;;;5.53
79053;BMP280;68451;49.510;6.026;2023-04-05T07:26:34;98596.53;;;6.07
79053;BMP280;68451;49.510;6.026;2023-04-05T07:29:01;98609.38;;;6.38
79053;BMP280;68451;49.510;6.026;2023-04-05T07:31:26;98588.97;;;6.35
79053;BMP280;68451;49.510;6.026;2023-04-05T07:33:52;98607.56;;;6.68
79053;BMP280;68451;49.510;6.026;2023-04-05T07:36:18;98615.22;;;6.91
79053;BMP280;68451;49.510;6.026;2023-04-05T07:38:43;98599.91;;;6.96
79053;BMP280;68451;49.510;6.026;2023-04-05T07:41:09;98577.81;;;7.06
79053;BMP280;68451;49.510;6.026;2023-04-05T07:43:35;98599.63;;;7.27
79053;BMP280;68451;49.510;6.026;2023-04-05T07:46:02;98615.03;;;7.49
79053;BMP280;68451;49.510;6.026;2023-04-05T07:48:28;98393.59;;;6.28
79053;BMP280;68451;49.510;6.026;2023-04-05T07:50:54;98502.53;;;6.85
79053;BMP280;68451;49.510;6.026;2023-04-05T07:53:20;98614.69;;;8.08
79053;BMP280;68451;49.510;6.026;2023-04-05T07:55:45;98582.06;;;8.05
79053;BMP280;68451;49.510;6.026;2023-04-05T07:58:11;98386.81;;;7.25
79053;BMP280;68451;49.510;6.026;2023-04-05T08:00:37;98587.88;;;8.76
79053;BMP280;68451;49.510;6.026;2023-04-05T08:03:02;98491.69;;;8.14
79053;BMP280;68451;49.510;6.026;2023-04-05T08:05:31;98595.72;;;8.83
79053;BMP280;68451;49.510;6.026;2023-04-05T08:07:57;98610.97;;;8.99
79053;BMP280;68451;49.510;6.026;2023-04-05T08:10:25;98602.88;;;9.28
79053;BMP280;68451;49.510;6.026;2023-04-05T08:12:52;98599.47;;;9.48
79053;BMP280;68451;49.510;6.026;2023-04-05T08:15:17;98596.47;;;9.57
79053;BMP280;68451;49.510;6.026;2023-04-05T08:17:43;98594.25;;;9.48
79053;BMP280;68451;49.510;6.026;2023-04-05T08:20:08;98575.59;;;9.31
79053;BMP280;68451;49.510;6.026;2023-04-05T08:22:34;98569.19;;;9.53
79053;BMP280;68451;49.510;6.026;2023-04-05T08:25:00;98614.13;;;10.34
79053;BMP280;68451;49.510;6.026;2023-04-05T08:27:25;98590.22;;;10.37
79053;BMP280;68451;49.510;6.026;2023-04-05T08:29:51;98598.84;;;10.44
79053;BMP280;68451;49.510;6.026;2023-04-05T08:32:17;98578.34;;;10.41
79053;BMP280;68451;49.510;6.026;2023-04-05T08:34:42;98456.88;;;9.81
79053;BMP280;68451;49.510;6.026;2023-04-05T08:37:08;98614.31;;;10.97
79053;BMP280;68451;49.510;6.026;2023-04-05T08:39:34;98509.47;;;10.42
79053;BMP280;68451;49.510;6.026;2023-04-05T08:42:07;98610.69;;;10.98
79053;BMP280;68451;49.510;6.026;2023-04-05T08:44:36;98579.28;;;11.42
79053;BMP280;68451;49.510;6.026;2023-04-05T08:47:03;98585.31;;;11.67
79053;BMP280;68451;49.510;6.026;2023-04-05T08:49:28;98571.66;;;11.90
79053;BMP280;68451;49.510;6.026;2023-04-05T08:51:54;98595.34;;;12.20
79053;BMP280;68451;49.510;6.026;2023-04-05T08:54:19;98582.59;;;12.05
79053;BMP280;68451;49.510;6.026;2023-04-05T08:56:46;98583.13;;;12.32
79053;BMP280;68451;49.510;6.026;2023-04-05T08:59:15;98604.09;;;12.50
79053;BMP280;68451;49.510;6.026;2023-04-05T09:01:43;98596.81;;;12.52
79053;BMP280;68451;49.510;6.026;2023-04-05T09:04:21;98508.91;;;11.84
79053;BMP280;68451;49.510;6.026;2023-04-05T09:06:49;98588.66;;;12.24
79053;BMP280;68451;49.510;6.026;2023-04-05T09:09:15;98481.56;;;11.37
79053;BMP280;68451;49.510;6.026;2023-04-05T09:11:42;98594.34;;;12.57
79053;BMP280;68451;49.510;6.026;2023-04-05T09:14:08;98512.06;;;12.10
79053;BMP280;68451;49.510;6.026;2023-04-05T09:16:38;98513.88;;;11.74
79053;BMP280;68451;49.510;6.026;2023-04-05T09:19:04;98562.66;;;11.86
79053;BMP280;68451;49.510;6.026;2023-04-05T09:21:57;98581.38;;;12.08
79053;BMP280;68451;49.510;6.026;2023-04-05T09:24:29;98577.53;;;12.47
79053;BMP280;68451;49.510;6.026;2023-04-05T09:29:33;98580.47;;;12.87
79053;BMP280;68451;49.510;6.026;2023-04-05T09:32:00;98596.03;;;13.00
79053;BMP280;68451;49.510;6.026;2023-04-05T09:34:29;98597.81;;;12.88
79053;BMP280;68451;49.510;6.026;2023-04-05T09:36:55;98572.28;;;12.83
79053;BMP280;68451;49.510;6.026;2023-04-05T09:39:30;98473.88;;;12.39
79053;BMP280;68451;49.510;6.026;2023-04-05T09:42:12;98589.56;;;13.32
79053;BMP280;68451;49.510;6.026;2023-04-05T09:44:53;98481.50;;;12.89
79053;BMP280;68451;49.510;6.026;2023-04-05T09:47:21;98560.66;;;13.51
79053;BMP280;68451;49.510;6.026;2023-04-05T09:49:47;98554.59;;;13.38
79053;BMP280;68451;49.510;6.026;2023-04-05T09:52:23;98499.53;;;13.09
79053;BMP280;68451;49.510;6.026;2023-04-05T09:54:54;98568.06;;;13.42
79053;BMP280;68451;49.510;6.026;2023-04-05T09:57:22;98442.31;;;12.94
79053;BMP280;68451;49.510;6.026;2023-04-05T09:59:48;98495.88;;;13.51
79053;BMP280;68451;49.510;6.026;2023-04-05T10:02:14;98571.53;;;14.24
79053;BMP280;68451;49.510;6.026;2023-04-05T10:04:41;98485.03;;;13.59
79053;BMP280;68451;49.510;6.026;2023-04-05T10:07:12;98579.06;;;14.09
79053;BMP280;68451;49.510;6.026;2023-04-05T10:09:39;98597.00;;;14.23
79053;BMP280;68451;49.510;6.026;2023-04-05T10:12:06;98573.91;;;14.49
79053;BMP280;68451;49.510;6.026;2023-04-05T10:14:34;98558.84;;;15.12
79053;BMP280;68451;49.510;6.026;2023-04-05T10:17:09;98472.38;;;14.71
79053;BMP280;68451;49.510;6.026;2023-04-05T10:20:01;98485.81;;;14.86
79053;BMP280;68451;49.510;6.026;2023-04-05T10:28:29;98563.84;;;15.42
79053;BMP280;68451;49.510;6.026;2023-04-05T10:31:23;98570.97;;;14.85
79053;BMP280;68451;49.510;6.026;2023-04-05T10:33:55;98558.88;;;14.09
79053;BMP280;68451;49.510;6.026;2023-04-05T10:36:44;98531.47;;;13.47
79053;BMP280;68451;49.510;6.026;2023-04-05T10:39:16;98556.09;;;13.58
79053;BMP280;68451;49.510;6.026;2023-04-05T10:41:47;98361.84;;;12.41
79053;BMP280;68451;49.510;6.026;2023-04-05T10:44:14;98456.50;;;12.86
79053;BMP280;68451;49.510;6.026;2023-04-05T10:46:40;98469.75;;;12.91
79053;BMP280;68451;49.510;6.026;2023-04-05T10:49:12;98494.13;;;12.92
79053;BMP280;68451;49.510;6.026;2023-04-05T10:51:41;98560.72;;;13.32
79053;BMP280;68451;49.510;6.026;2023-04-05T10:54:08;98501.38;;;12.78
79053;BMP280;68451;49.510;6.026;2023-04-05T10:56:36;98449.88;;;12.42
79053;BMP280;68451;49.510;6.026;2023-04-05T10:59:02;98548.97;;;12.93
79053;BMP280;68451;49.510;6.026;2023-04-05T11:01:28;98548.56;;;12.60
79053;BMP280;68451;49.510;6.026;2023-04-05T11:03:54;98486.41;;;12.19
79053;BMP280;68451;49.510;6.026;2023-04-05T11:06:30;98537.22;;;12.66
79053;BMP280;68451;49.510;6.026;2023-04-05T11:11:40;98524.75;;;12.80
79053;BMP280;68451;49.510;6.026;2023-04-05T11:14:22;98554.59;;;12.79
79053;BMP280;68451;49.510;6.026;2023-04-05T11:16:52;98502.84;;;12.08
79053;BMP280;68451;49.510;6.026;2023-04-05T11:19:47;98534.56;;;12.18
79053;BMP280;68451;49.510;6.026;2023-04-05T11:22:13;98548.44;;;12.19
79053;BMP280;68451;49.510;6.026;2023-04-05T11:24:59;98507.63;;;12.11
79053;BMP280;68451;49.510;6.026;2023-04-05T11:27:34;98515.78;;;12.03
79053;BMP280;68451;49.510;6.026;2023-04-05T11:30:08;98541.47;;;12.13
79053;BMP280;68451;49.510;6.026;2023-04-05T11:32:44;98509.06;;;11.89
79053;BMP280;68451;49.510;6.026;2023-04-05T11:35:17;98407.81;;;11.10
79053;BMP280;68451;49.510;6.026;2023-04-05T11:40:30;98530.34;;;11.74
79053;BMP280;68451;49.510;6.026;2023-04-05T11:43:07;98527.31;;;11.71
79053;BMP280;68451;49.510;6.026;2023-04-05T11:45:35;98510.38;;;11.55
79053;BMP280;68451;49.510;6.026;2023-04-05T11:48:09;98501.25;;;11.39
79053;BMP280;68451;49.510;6.026;2023-04-05T11:50:39;98436.22;;;11.00
79053;BMP280;68451;49.510;6.026;2023-04-05T11:53:11;98396.16;;;10.81
79053;BMP280;68451;49.510;6.026;2023-04-05T11:55:39;98495.97;;;11.46
79053;BMP280;68451;49.510;6.026;2023-04-05T11:58:19;98495.22;;;11.39
79053;BMP280;68451;49.510;6.026;2023-04-05T12:00:46;98501.25;;;11.39
79053;BMP280;68451;49.510;6.026;2023-04-05T12:03:21;98371.41;;;10.59
79053;BMP280;68451;49.510;6.026;2023-04-05T12:05:48;98497.31;;;11.55
79053;BMP280;68451;49.510;6.026;2023-04-05T12:08:15;98466.78;;;11.24
79053;BMP280;68451;49.510;6.026;2023-04-05T12:10:40;98368.50;;;10.42
79053;BMP280;68451;49.510;6.026;2023-04-05T12:13:06;98484.03;;;11.00
79053;BMP280;68451;49.510;6.026;2023-04-05T12:15:36;98472.13;;;10.80
79053;BMP280;68451;49.510;6.026;2023-04-05T12:18:01;98484.06;;;10.94
79053;BMP280;68451;49.510;6.026;2023-04-05T12:20:27;98466.06;;;10.86
79053;BMP280;68451;49.510;6.026;2023-04-05T12:22:54;98365.09;;;10.04
79053;BMP280;68451;49.510;6.026;2023-04-05T12:25:20;98481.44;;;10.62
79053;BMP280;68451;49.510;6.026;2023-04-05T12:27:46;98462.25;;;10.50
79053;BMP280;68451;49.510;6.026;2023-04-05T12:30:15;98472.22;;;10.66
79053;BMP280;68451;49.510;6.026;2023-04-05T12:32:51;98449.81;;;10.46
79053;BMP280;68451;49.510;6.026;2023-04-05T12:35:19;98461.25;;;10.51
79053;BMP280;68451;49.510;6.026;2023-04-05T12:37:45;98459.84;;;10.49
79053;BMP280;68451;49.510;6.026;2023-04-05T12:40:11;98435.03;;;10.33
79053;BMP280;68451;49.510;6.026;2023-04-05T12:42:39;98431.03;;;10.30
79053;BMP280;68451;49.510;6.026;2023-04-05T12:45:08;98429.38;;;10.36
79053;BMP280;68451;49.510;6.026;2023-04-05T12:47:34;98431.84;;;10.31
79053;BMP280;68451;49.510;6.026;2023-04-05T12:50:13;98470.31;;;10.49
79053;BMP280;68451;49.510;6.026;2023-04-05T12:52:57;98463.09;;;10.44
79053;BMP280;68451;49.510;6.026;2023-04-05T12:55:24;98400.19;;;10.08
79053;BMP280;68451;49.510;6.026;2023-04-05T12:57:59;98311.34;;;9.52
79053;BMP280;68451;49.510;6.026;2023-04-05T13:00:27;98457.50;;;10.34
79053;BMP280;68451;49.510;6.026;2023-04-05T13:02:54;98311.81;;;9.29
79053;BMP280;68451;49.510;6.026;2023-04-05T13:05:21;98438.09;;;10.10
79053;BMP280;68451;49.510;6.026;2023-04-05T13:07:50;98442.66;;;10.35
79053;BMP280;68451;49.510;6.026;2023-04-05T13:10:20;98436.66;;;10.27
79053;BMP280;68451;49.510;6.026;2023-04-05T13:12:46;98396.78;;;10.01
79053;BMP280;68451;49.510;6.026;2023-04-05T13:15:14;98363.78;;;9.81
79053;BMP280;68451;49.510;6.026;2023-04-05T13:17:41;98329.94;;;9.68
79053;BMP280;68451;49.510;6.026;2023-04-05T13:20:07;98398.34;;;10.15
79053;BMP280;68451;49.510;6.026;2023-04-05T13:22:33;98410.22;;;10.17
79053;BMP280;68451;49.510;6.026;2023-04-05T13:24:59;98382.19;;;10.00
79053;BMP280;68451;49.510;6.026;2023-04-05T13:27:25;98369.00;;;9.81
79053;BMP280;68451;49.510;6.026;2023-04-05T13:29:51;98317.78;;;9.42
79053;BMP280;68451;49.510;6.026;2023-04-05T13:32:16;98410.25;;;9.98
79053;BMP280;68451;49.510;6.026;2023-04-05T13:34:42;98403.84;;;9.94
79053;BMP280;68451;49.510;6.026;2023-04-05T13:37:08;98385.41;;;9.88
79053;BMP280;68451;49.510;6.026;2023-04-05T13:39:33;98391.38;;;10.09
79053;BMP280;68451;49.510;6.026;2023-04-05T13:41:59;98283.72;;;9.44
79053;BMP280;68451;49.510;6.026;2023-04-05T13:44:25;98363.06;;;10.06
79053;BMP280;68451;49.510;6.026;2023-04-05T13:46:51;98402.44;;;10.49
79053;BMP280;68451;49.510;6.026;2023-04-05T13:49:17;98329.53;;;10.09
79053;BMP280;68451;49.510;6.026;2023-04-05T13:51:42;98359.88;;;10.42
79053;BMP280;68451;49.510;6.026;2023-04-05T13:54:08;98376.69;;;10.52
79053;BMP280;68451;49.510;6.026;2023-04-05T13:56:36;98278.75;;;9.80
79053;BMP280;68451;49.510;6.026;2023-04-05T13:59:02;98377.31;;;10.48
79053;BMP280;68451;49.510;6.026;2023-04-05T14:01:28;98356.56;;;10.28
79053;BMP280;68451;49.510;6.026;2023-04-05T14:03:54;98362.38;;;10.30
79053;BMP280;68451;49.510;6.026;2023-04-05T14:06:20;98268.94;;;9.69
79053;BMP280;68451;49.510;6.026;2023-04-05T14:08:45;98243.97;;;9.55
79053;BMP280;68451;49.510;6.026;2023-04-05T14:11:11;98350.78;;;10.19
79053;BMP280;68451;49.510;6.026;2023-04-05T14:13:38;98375.97;;;10.39
79053;BMP280;68451;49.510;6.026;2023-04-05T14:16:04;98351.50;;;10.33
79053;BMP280;68451;49.510;6.026;2023-04-05T14:18:30;98351.72;;;10.31
79053;BMP280;68451;49.510;6.026;2023-04-05T14:20:56;98354.75;;;10.28
79053;BMP280;68451;49.510;6.026;2023-04-05T14:23:22;98340.69;;;10.29
79053;BMP280;68451;49.510;6.026;2023-04-05T14:25:47;98360.06;;;10.47
79053;BMP280;68451;49.510;6.026;2023-04-05T14:28:13;98342.47;;;10.36
79053;BMP280;68451;49.510;6.026;2023-04-05T14:30:39;98368.34;;;10.68
79053;BMP280;68451;49.510;6.026;2023-04-05T14:33:04;98288.75;;;10.15
79053;BMP280;68451;49.510;6.026;2023-04-05T14:35:30;98303.31;;;10.36
79053;BMP280;68451;49.510;6.026;2023-04-05T14:37:56;98335.97;;;10.45
79053;BMP280;68451;49.510;6.026;2023-04-05T14:40:21;98330.75;;;10.45